createdAt,value
2022-12-11T00:00:59.702Z,-0.83
2022-12-11T00:03:29.273Z,-0.80
2022-12-11T00:05:58.771Z,-0.86
2022-12-11T00:08:28.354Z,-0.90
2022-12-11T00:11:00.489Z,-0.89
2022-12-11T00:13:29.985Z,-0.90
2022-12-11T00:16:01.202Z,-0.98
2022-12-11T00:18:30.836Z,-0.92
2022-12-11T00:21:03.018Z,-0.85
2022-12-11T00:23:32.757Z,-0.82
2022-12-11T00:26:08.395Z,-0.86
2022-12-11T00:28:38.621Z,-0.88
2022-12-11T00:31:09.239Z,-0.97
2022-12-11T00:33:38.700Z,-0.95
2022-12-11T00:36:14.526Z,-0.95
2022-12-11T00:38:45.191Z,-0.98
2022-12-11T00:41:17.648Z,-0.97
2022-12-11T00:43:47.154Z,-0.96
2022-12-11T00:46:17.002Z,-0.94
2022-12-11T00:48:46.747Z,-0.93
2022-12-11T00:51:16.324Z,-0.88
2022-12-11T00:53:46.327Z,-0.96
2022-12-11T00:56:21.881Z,-1.01
2022-12-11T00:58:51.981Z,-0.93
2022-12-11T01:01:24.249Z,-0.88
2022-12-11T01:03:55.500Z,-0.83
2022-12-11T01:06:26.998Z,-0.83
2022-12-11T01:09:09.609Z,-0.80
2022-12-11T01:11:42.705Z,-0.84
2022-12-11T01:14:13.341Z,-0.89
2022-12-11T01:16:42.985Z,-0.95
2022-12-11T01:19:13.068Z,-0.97
2022-12-11T01:21:42.698Z,-0.95
2022-12-11T01:24:12.234Z,-0.91
2022-12-11T01:26:44.339Z,-1.08
2022-12-11T01:29:13.909Z,-0.98
2022-12-11T01:31:44.045Z,-0.97
2022-12-11T01:34:13.586Z,-0.92
2022-12-11T01:36:43.092Z,-0.90
2022-12-11T01:39:12.627Z,-0.93
2022-12-11T01:41:44.750Z,-1.02
2022-12-11T01:44:44.147Z,-0.96
2022-12-11T01:47:14.018Z,-0.99
2022-12-11T01:49:44.447Z,-1.00
2022-12-11T01:52:18.460Z,-1.01
2022-12-11T01:54:49.167Z,-1.04
2022-12-11T01:57:21.350Z,-1.03
2022-12-11T01:59:50.948Z,-1.11
2022-12-11T02:02:24.306Z,-1.12
2022-12-11T02:04:53.869Z,-1.08
2022-12-11T02:07:23.803Z,-1.08
2022-12-11T02:09:53.604Z,-1.15
2022-12-11T02:12:33.449Z,-1.11
2022-12-11T02:15:12.654Z,-1.14
2022-12-11T02:17:46.864Z,-1.20
2022-12-11T02:20:21.270Z,-1.17
2022-12-11T02:23:11.295Z,-1.18
2022-12-11T02:25:49.259Z,-1.14
2022-12-11T02:28:27.979Z,-1.18
2022-12-11T02:31:03.102Z,-1.16
2022-12-11T02:33:39.098Z,-1.21
2022-12-11T02:36:12.411Z,-1.19
2022-12-11T02:38:50.581Z,-1.21
2022-12-11T02:41:24.064Z,-1.18
2022-12-11T02:43:59.088Z,-1.20
2022-12-11T02:46:29.712Z,-1.23
2022-12-11T02:49:00.136Z,-1.38
2022-12-11T02:51:34.946Z,-1.25
2022-12-11T02:54:05.610Z,-1.24
2022-12-11T02:56:42.168Z,-1.31
2022-12-11T02:59:18.282Z,-1.27
2022-12-11T03:01:48.830Z,-1.29
2022-12-11T03:04:18.780Z,-1.41
2022-12-11T03:06:54.184Z,-1.36
2022-12-11T03:09:24.265Z,-1.34
2022-12-11T03:11:54.911Z,-1.28
2022-12-11T03:14:27.019Z,-1.42
2022-12-11T03:17:02.776Z,-1.37
2022-12-11T03:19:39.096Z,-1.32
2022-12-11T03:22:13.364Z,-1.36
2022-12-11T03:24:48.287Z,-1.28
2022-12-11T03:27:22.740Z,-1.30
2022-12-11T03:29:59.920Z,-1.29
2022-12-11T03:32:34.069Z,-1.26
2022-12-11T03:35:08.536Z,-1.29
2022-12-11T03:37:42.124Z,-1.20
2022-12-11T03:40:16.308Z,-1.29
2022-12-11T03:42:47.902Z,-1.32
2022-12-11T03:45:22.165Z,-1.32
2022-12-11T03:47:53.852Z,-1.35
2022-12-11T03:50:26.264Z,-1.35
2022-12-11T03:52:57.131Z,-1.32
2022-12-11T03:55:28.584Z,-1.34
2022-12-11T03:57:58.386Z,-1.31
2022-12-11T04:00:31.254Z,-1.35
2022-12-11T04:03:16.539Z,-1.32
2022-12-11T04:05:48.166Z,-1.36
2022-12-11T04:08:20.675Z,-1.33
2022-12-11T04:11:10.652Z,-1.25
2022-12-11T04:13:40.179Z,-1.37
2022-12-11T04:16:09.906Z,-1.29
2022-12-11T04:18:51.980Z,-1.34
2022-12-11T04:21:39.271Z,-1.40
2022-12-11T04:24:19.150Z,-1.29
2022-12-11T04:26:50.126Z,-1.36
2022-12-11T04:29:19.668Z,-1.32
2022-12-11T04:31:52.294Z,-1.38
2022-12-11T04:34:21.645Z,-1.42
2022-12-11T04:36:51.200Z,-1.40
2022-12-11T04:39:20.686Z,-1.46
2022-12-11T04:41:50.318Z,-1.38
2022-12-11T04:44:19.892Z,-1.42
2022-12-11T04:46:52.028Z,-1.41
2022-12-11T04:49:21.565Z,-1.41
2022-12-11T04:51:51.067Z,-1.42
2022-12-11T04:54:20.626Z,-1.48
2022-12-11T04:56:50.587Z,-1.41
2022-12-11T04:59:20.357Z,-1.46
2022-12-11T05:01:52.575Z,-1.48
2022-12-11T05:04:22.283Z,-1.49
2022-12-11T05:06:52.177Z,-1.45
2022-12-11T05:09:21.784Z,-1.52
2022-12-11T05:11:51.781Z,-1.55
2022-12-11T05:14:21.447Z,-1.52
2022-12-11T05:16:53.649Z,-1.55
2022-12-11T05:19:23.194Z,-1.51
2022-12-11T05:21:52.869Z,-1.43
2022-12-11T05:24:22.546Z,-1.36
2022-12-11T05:26:52.048Z,-1.43
2022-12-11T05:29:21.561Z,-1.48
2022-12-11T05:31:53.715Z,-1.48
2022-12-11T05:34:23.231Z,-1.45
2022-12-11T05:36:52.801Z,-1.50
2022-12-11T05:39:22.545Z,-1.53
2022-12-11T05:41:52.057Z,-1.54
2022-12-11T05:44:21.592Z,-1.50
2022-12-11T05:46:53.768Z,-1.50
2022-12-11T05:49:30.521Z,-1.50
2022-12-11T05:52:00.559Z,-1.51
2022-12-11T05:54:30.164Z,-1.40
2022-12-11T05:56:59.704Z,-1.39
2022-12-11T05:59:29.310Z,-1.47
2022-12-11T06:02:01.685Z,-1.58
2022-12-11T06:04:31.338Z,-1.58
2022-12-11T06:07:01.015Z,-1.53
2022-12-11T06:09:30.519Z,-1.49
2022-12-11T06:12:00.039Z,-1.49
2022-12-11T06:14:29.750Z,-1.51
2022-12-11T06:17:01.861Z,-1.58
2022-12-11T06:19:36.576Z,-1.59
2022-12-11T06:22:06.784Z,-1.55
2022-12-11T06:24:36.331Z,-1.53
2022-12-11T06:27:05.953Z,-1.48
2022-12-11T06:29:35.769Z,-1.55
2022-12-11T06:32:08.085Z,-1.58
2022-12-11T06:34:37.627Z,-1.56
2022-12-11T06:37:07.316Z,-1.57
2022-12-11T06:39:36.971Z,-1.52
2022-12-11T06:42:06.817Z,-1.52
2022-12-11T06:44:36.358Z,-1.46
2022-12-11T06:47:09.012Z,-1.47
2022-12-11T06:49:38.309Z,-1.48
2022-12-11T06:52:11.571Z,-1.49
2022-12-11T06:54:44.581Z,-1.53
2022-12-11T06:57:14.196Z,-1.52
2022-12-11T06:59:44.045Z,-1.38
2022-12-11T07:02:19.781Z,-1.44
2022-12-11T07:04:54.922Z,-1.50
2022-12-11T07:07:24.949Z,-1.51
2022-12-11T07:09:54.877Z,-1.48
2022-12-11T07:12:24.407Z,-1.45
2022-12-11T07:14:54.600Z,-1.45
2022-12-11T07:17:26.860Z,-1.51
2022-12-11T07:19:56.428Z,-1.50
2022-12-11T07:22:26.269Z,-1.51
2022-12-11T07:24:55.841Z,-1.54
2022-12-11T07:27:25.507Z,-1.49
2022-12-11T07:29:55.583Z,-1.55
2022-12-11T07:32:27.861Z,-1.56
2022-12-11T07:34:57.541Z,-1.50
2022-12-11T07:37:27.031Z,-1.43
2022-12-11T07:39:56.726Z,-1.51
2022-12-11T07:42:26.367Z,-1.52
2022-12-11T07:44:55.897Z,-1.41
2022-12-11T07:47:28.091Z,-1.46
2022-12-11T07:49:57.721Z,-1.52
2022-12-11T07:52:27.424Z,-1.49
2022-12-11T07:54:57.000Z,-1.47
2022-12-11T07:57:26.571Z,-1.49
2022-12-11T07:59:56.076Z,-1.49
2022-12-11T08:02:31.336Z,-1.43
2022-12-11T08:05:05.045Z,-1.45
2022-12-11T08:07:37.055Z,-1.56
2022-12-11T08:10:07.578Z,-1.45
2022-12-11T08:12:37.395Z,-1.44
2022-12-11T08:15:07.802Z,-1.40
2022-12-11T08:17:40.366Z,-1.41
2022-12-11T08:20:11.081Z,-1.44
2022-12-11T08:22:40.640Z,-1.39
2022-12-11T08:25:11.328Z,-1.45
2022-12-11T08:27:41.170Z,-1.36
2022-12-11T08:30:12.376Z,-1.45
2022-12-11T08:32:45.069Z,-1.43
2022-12-11T08:35:14.741Z,-1.37
2022-12-11T08:37:44.316Z,-1.35
2022-12-11T08:40:15.032Z,-1.41
2022-12-11T08:42:44.656Z,-1.36
2022-12-11T08:45:14.393Z,-1.28
2022-12-11T08:47:46.532Z,-1.26
2022-12-11T08:50:16.186Z,-1.22
2022-12-11T08:52:45.738Z,-1.26
2022-12-11T08:55:15.428Z,-1.23
2022-12-11T08:57:45.381Z,-1.35
2022-12-11T09:00:16.683Z,-1.35
2022-12-11T09:02:48.915Z,-1.32
2022-12-11T09:05:18.538Z,-1.24
2022-12-11T09:07:48.209Z,-1.23
2022-12-11T09:10:17.765Z,-1.20
2022-12-11T09:12:47.315Z,-1.16
2022-12-11T09:15:16.793Z,-1.21
2022-12-11T09:17:48.908Z,-1.15
2022-12-11T09:20:18.478Z,-1.24
2022-12-11T09:22:48.037Z,-1.23
2022-12-11T09:25:17.780Z,-1.20
2022-12-11T09:27:47.321Z,-1.13
2022-12-11T09:30:18.212Z,-1.14
2022-12-11T09:32:50.320Z,-1.05
2022-12-11T09:35:19.885Z,-1.06
2022-12-11T09:37:49.394Z,-1.16
2022-12-11T09:40:19.094Z,-1.05
2022-12-11T09:42:59.918Z,-1.02
2022-12-11T09:45:29.518Z,-1.05
2022-12-11T09:48:03.467Z,-1.00
2022-12-11T09:50:35.557Z,-1.01
2022-12-11T09:53:10.376Z,-0.99
2022-12-11T09:55:51.364Z,-1.02
2022-12-11T09:58:28.115Z,-1.01
2022-12-11T10:01:04.496Z,-0.92
2022-12-11T10:03:46.736Z,-1.13
2022-12-11T10:06:23.727Z,-1.11
2022-12-11T10:09:03.418Z,-1.04
2022-12-11T10:11:45.189Z,-0.90
2022-12-11T10:14:25.756Z,-0.97
2022-12-11T10:17:00.573Z,-0.91
2022-12-11T10:19:34.988Z,-0.86
2022-12-11T10:22:05.998Z,-0.84
2022-12-11T10:25:10.232Z,-0.76
2022-12-11T10:27:33.883Z,-0.80
2022-12-11T10:30:04.923Z,-0.65
2022-12-11T10:32:39.828Z,-0.63
2022-12-11T10:35:21.499Z,-0.76
2022-12-11T10:37:51.349Z,-0.62
2022-12-11T10:40:23.153Z,-0.58
2022-12-11T10:42:57.054Z,-0.60
2022-12-11T10:45:26.545Z,-0.58
2022-12-11T10:48:05.332Z,-0.56
2022-12-11T10:50:37.441Z,-0.54
2022-12-11T10:53:08.018Z,-0.40
2022-12-11T10:55:47.689Z,-0.31
2022-12-11T10:58:21.418Z,-0.35
2022-12-11T11:01:03.049Z,0.00
2022-12-11T11:03:33.101Z,-0.09
2022-12-11T11:06:17.878Z,-0.14
2022-12-11T11:08:50.189Z,0.01
2022-12-11T11:11:33.972Z,-0.07
2022-12-11T11:14:25.094Z,-0.15
2022-12-11T11:16:57.980Z,-0.32
2022-12-11T11:19:29.862Z,-0.27
2022-12-11T11:22:08.025Z,-0.49
2022-12-11T11:24:41.455Z,-0.32
2022-12-11T11:27:16.632Z,0.08
2022-12-11T11:29:52.787Z,-0.33
2022-12-11T11:32:26.576Z,-0.35
2022-12-11T11:34:56.134Z,-0.32
2022-12-11T11:37:34.933Z,-0.58
2022-12-11T11:40:10.994Z,-0.55
2022-12-11T11:42:49.555Z,-0.64
2022-12-11T11:45:22.592Z,-0.44
2022-12-11T11:48:03.137Z,-0.32
2022-12-11T11:50:38.895Z,-0.69
2022-12-11T11:53:16.943Z,-0.39
2022-12-11T11:55:57.097Z,-0.57
2022-12-11T11:58:30.164Z,-0.30
2022-12-11T12:00:59.728Z,-0.50
2022-12-11T12:03:31.654Z,-0.53
2022-12-11T12:06:14.932Z,-0.58
2022-12-11T12:08:55.365Z,-0.40
2022-12-11T12:11:37.641Z,-0.37
2022-12-11T12:14:50.522Z,-0.25
2022-12-11T12:17:17.368Z,-0.41
2022-12-11T12:19:53.982Z,-0.33
2022-12-11T12:22:55.065Z,-0.36
2022-12-11T12:25:33.659Z,-0.41
2022-12-11T12:28:13.932Z,-0.47
2022-12-11T12:31:05.367Z,-0.49
2022-12-11T12:33:46.569Z,-0.39
2022-12-11T12:36:25.049Z,-0.65
2022-12-11T12:38:57.943Z,-0.48
2022-12-11T12:41:43.137Z,-0.04
2022-12-11T12:44:17.176Z,0.23
2022-12-11T12:46:58.321Z,0.22
2022-12-11T12:49:40.819Z,0.39
2022-12-11T12:52:16.216Z,0.55
2022-12-11T12:55:09.535Z,0.54
2022-12-11T12:57:44.863Z,0.52
2022-12-11T13:00:15.426Z,0.27
2022-12-11T13:02:53.806Z,0.15
2022-12-11T13:05:28.680Z,0.09
2022-12-11T13:08:00.640Z,0.32
2022-12-11T13:10:34.196Z,0.36
2022-12-11T13:13:08.716Z,0.19
2022-12-11T13:15:43.647Z,0.11
2022-12-11T13:18:35.658Z,-0.12
2022-12-11T13:21:06.735Z,-0.28
2022-12-11T13:23:40.352Z,-0.23
2022-12-11T13:26:12.319Z,-0.26
2022-12-11T13:28:54.083Z,-0.31
2022-12-11T13:31:42.515Z,-0.39
2022-12-11T13:34:20.307Z,-0.33
2022-12-11T13:36:51.761Z,-0.32
2022-12-11T13:39:25.285Z,-0.35
2022-12-11T13:41:57.637Z,-0.58
2022-12-11T13:44:32.993Z,-0.58
2022-12-11T13:47:05.941Z,-0.43
2022-12-11T13:49:39.479Z,-0.37
2022-12-11T13:52:09.239Z,-0.27
2022-12-11T13:54:39.142Z,-0.42
2022-12-11T13:57:20.912Z,-0.45
2022-12-11T13:59:55.486Z,-0.24
2022-12-11T14:02:28.306Z,-0.23
2022-12-11T14:05:01.049Z,-0.33
2022-12-11T14:07:32.457Z,-0.35
2022-12-11T14:10:05.695Z,-0.38
2022-12-11T14:12:35.522Z,-0.49
2022-12-11T14:15:09.070Z,-0.73
2022-12-11T14:17:39.324Z,-0.57
2022-12-11T14:20:18.177Z,-0.55
2022-12-11T14:22:47.677Z,-0.66
2022-12-11T14:25:24.889Z,-0.78
2022-12-11T14:27:57.112Z,-0.87
2022-12-11T14:30:31.574Z,-0.99
2022-12-11T14:33:04.215Z,-1.08
2022-12-11T14:35:39.201Z,-1.11
2022-12-11T14:38:19.454Z,-1.14
2022-12-11T14:40:54.383Z,-1.24
2022-12-11T14:43:28.348Z,-1.38
2022-12-11T14:46:04.628Z,-1.42
2022-12-11T14:48:39.589Z,-1.45
2022-12-11T14:51:17.140Z,-1.44
2022-12-11T14:53:51.763Z,-1.59
2022-12-11T14:56:24.190Z,-1.60
2022-12-11T14:58:59.477Z,-1.69
2022-12-11T15:01:33.799Z,-1.71
2022-12-11T15:04:09.670Z,-1.75
2022-12-11T15:06:47.242Z,-1.82
2022-12-11T15:09:22.758Z,-1.81
2022-12-11T15:11:53.824Z,-1.92
2022-12-11T15:14:25.660Z,-1.96
2022-12-11T15:17:00.248Z,-1.93
2022-12-11T15:19:34.071Z,-2.00
2022-12-11T15:22:08.284Z,-2.06
2022-12-11T15:24:42.717Z,-2.03
2022-12-11T15:27:25.695Z,-2.06
2022-12-11T15:29:55.267Z,-2.10
2022-12-11T15:32:27.960Z,-2.05
2022-12-11T15:34:59.243Z,-2.10
2022-12-11T15:37:30.414Z,-2.10
2022-12-11T15:40:01.499Z,-2.12
2022-12-11T15:42:33.693Z,-2.17
2022-12-11T15:45:04.319Z,-2.27
2022-12-11T15:47:36.406Z,-2.23
2022-12-11T15:50:17.657Z,-2.06
2022-12-11T15:52:47.850Z,-2.17
2022-12-11T15:55:18.273Z,-2.14
2022-12-11T15:57:50.237Z,-2.27
2022-12-11T16:00:21.861Z,-2.18
2022-12-11T16:02:54.369Z,-2.21
2022-12-11T16:05:24.381Z,-2.35
2022-12-11T16:07:54.733Z,-2.33
2022-12-11T16:10:24.910Z,-2.40
2022-12-11T16:12:59.331Z,-2.38
2022-12-11T16:15:29.221Z,-2.40
2022-12-11T16:18:06.837Z,-2.40
2022-12-11T16:20:37.564Z,-2.43
2022-12-11T16:23:07.509Z,-2.43
2022-12-11T16:25:39.624Z,-2.45
2022-12-11T16:28:10.495Z,-2.50
2022-12-11T16:30:40.987Z,-2.38
2022-12-11T16:33:13.847Z,-2.35
2022-12-11T16:35:44.099Z,-2.45
2022-12-11T16:38:13.908Z,-2.34
2022-12-11T16:40:43.666Z,-2.38
2022-12-11T16:43:13.199Z,-2.43
2022-12-11T16:45:42.751Z,-2.38
2022-12-11T16:48:15.057Z,-2.41
2022-12-11T16:50:44.526Z,-2.37
2022-12-11T16:53:14.736Z,-2.29
2022-12-11T16:55:44.280Z,-2.32
2022-12-11T16:58:16.358Z,-2.38
2022-12-11T17:00:45.837Z,-2.34
2022-12-11T17:03:19.112Z,-2.29
2022-12-11T17:05:48.706Z,-2.29
2022-12-11T17:08:18.315Z,-2.32
2022-12-11T17:10:47.897Z,-2.35
2022-12-11T17:13:17.354Z,-2.34
2022-12-11T17:15:48.458Z,-2.35
2022-12-11T17:18:20.662Z,-2.40
2022-12-11T17:20:51.097Z,-2.41
2022-12-11T17:23:21.443Z,-2.39
2022-12-11T17:25:51.409Z,-2.41
2022-12-11T17:28:20.934Z,-2.46
2022-12-11T17:30:52.415Z,-2.43
2022-12-11T17:41:21.260Z,-2.45
2022-12-11T17:43:51.676Z,-2.47
2022-12-11T17:46:21.881Z,-2.44
2022-12-11T17:48:51.760Z,-2.45
2022-12-11T17:51:24.549Z,-2.38
2022-12-11T17:53:55.428Z,-2.48
2022-12-11T17:56:28.247Z,-2.49
2022-12-11T17:58:57.964Z,-2.49
2022-12-11T18:05:27.595Z,-2.52
2022-12-11T18:07:58.138Z,-2.44
2022-12-11T18:14:17.453Z,-2.60
2022-12-11T18:24:16.908Z,-2.66
2022-12-11T18:26:46.434Z,-2.64
2022-12-11T18:29:18.653Z,-2.62
2022-12-11T18:31:48.251Z,-2.64
2022-12-11T18:34:17.790Z,-2.57
2022-12-11T18:36:48.995Z,-2.49
2022-12-11T18:39:18.486Z,-2.45
2022-12-11T18:42:03.572Z,-2.40
2022-12-11T18:48:51.822Z,-2.25
2022-12-11T18:51:25.111Z,-2.17
2022-12-11T18:53:55.536Z,-2.16
2022-12-11T19:02:38.220Z,-2.14
2022-12-11T19:05:11.359Z,-2.15
2022-12-11T19:07:41.344Z,-2.18
2022-12-11T19:10:11.638Z,-2.24
2022-12-11T19:12:43.003Z,-2.31
2022-12-11T19:15:14.695Z,-2.39
2022-12-11T19:17:46.156Z,-2.46
2022-12-11T19:20:47.542Z,-2.54
2022-12-11T19:23:09.115Z,-2.61
2022-12-11T19:25:44.603Z,-2.62
2022-12-11T19:28:14.543Z,-2.68
2022-12-11T19:30:46.057Z,-2.71
2022-12-11T19:33:16.273Z,-2.74
2022-12-11T19:35:48.462Z,-2.75
2022-12-11T19:38:19.404Z,-2.82
2022-12-11T19:40:48.983Z,-2.83
2022-12-11T19:43:19.635Z,-2.89
2022-12-11T19:45:49.185Z,-2.94
2022-12-11T19:48:18.756Z,-3.01
2022-12-11T19:50:50.876Z,-2.99
2022-12-11T19:53:20.615Z,-3.04
2022-12-11T19:55:52.890Z,-3.03
2022-12-11T19:58:22.712Z,-3.04
2022-12-11T20:00:52.331Z,-3.07
2022-12-11T20:03:22.103Z,-3.11
2022-12-11T20:05:54.545Z,-3.11
2022-12-11T20:11:17.847Z,-3.20
2022-12-11T20:13:48.443Z,-3.24
2022-12-11T20:16:28.845Z,-3.22
2022-12-11T20:19:10.408Z,-3.21
2022-12-11T20:21:42.640Z,-3.26
2022-12-11T20:24:12.822Z,-3.30
2022-12-11T20:26:42.693Z,-3.35
2022-12-11T20:29:12.724Z,-3.36
2022-12-11T20:31:42.936Z,-3.36
2022-12-11T20:34:13.019Z,-3.47
2022-12-11T20:36:45.597Z,-3.45
2022-12-11T20:39:17.859Z,-3.43
2022-12-11T20:41:47.571Z,-3.41
2022-12-11T20:44:19.361Z,-3.37
2022-12-11T20:46:49.796Z,-3.36
2022-12-11T20:49:19.855Z,-3.16
2022-12-11T20:51:52.407Z,-3.24
2022-12-11T20:54:22.123Z,-3.24
2022-12-11T20:56:52.632Z,-3.26
2022-12-11T20:59:22.300Z,-3.29
2022-12-11T21:01:52.065Z,-3.27
2022-12-11T21:04:22.306Z,-3.35
2022-12-11T21:06:57.804Z,-3.43
2022-12-11T21:09:29.305Z,-3.40
2022-12-11T21:12:01.601Z,-3.38
2022-12-11T21:14:31.907Z,-3.42
2022-12-11T21:17:02.126Z,-3.42
2022-12-11T21:19:31.651Z,-3.44
2022-12-11T21:22:04.016Z,-3.47
2022-12-11T21:24:34.220Z,-3.51
2022-12-11T21:27:03.927Z,-3.55
2022-12-11T21:29:33.605Z,-3.53
2022-12-11T21:32:03.139Z,-3.55
2022-12-11T21:34:32.756Z,-3.54
2022-12-11T21:37:04.833Z,-3.54
2022-12-11T21:39:39.165Z,-3.57
2022-12-11T21:42:09.187Z,-3.58
2022-12-11T21:47:28.251Z,-3.61
2022-12-11T21:49:57.808Z,-3.62
2022-12-11T21:52:30.036Z,-3.62
2022-12-11T21:54:59.554Z,-3.60
2022-12-11T21:57:29.811Z,-3.62
2022-12-11T21:59:59.307Z,-3.65
2022-12-11T22:02:28.858Z,-3.71
2022-12-11T22:05:02.544Z,-3.63
2022-12-11T22:07:35.641Z,-3.62
2022-12-11T22:10:05.474Z,-3.67
2022-12-11T22:12:35.128Z,-3.75
2022-12-11T22:15:04.707Z,-3.73
2022-12-11T22:17:34.203Z,-3.79
2022-12-11T22:20:03.707Z,-3.81
2022-12-11T22:22:35.839Z,-3.78
2022-12-11T22:25:07.798Z,-3.83
2022-12-11T22:27:37.708Z,-3.81
2022-12-11T22:30:08.277Z,-3.90
2022-12-11T22:32:37.791Z,-3.85
2022-12-11T22:35:07.988Z,-3.85
2022-12-11T22:37:40.093Z,-3.76
2022-12-11T22:40:10.924Z,-3.83
2022-12-11T22:42:40.781Z,-3.89
2022-12-11T22:45:11.737Z,-3.84
2022-12-11T22:47:41.523Z,-3.82
2022-12-11T22:50:11.907Z,-3.87
2022-12-11T22:52:44.836Z,-3.89
2022-12-11T22:55:14.963Z,-3.87
2022-12-11T22:57:44.603Z,-3.91
2022-12-11T23:00:16.587Z,-3.92
2022-12-11T23:02:46.432Z,-3.88
2022-12-11T23:05:16.262Z,-3.91
2022-12-11T23:07:48.380Z,-3.95
2022-12-11T23:10:17.991Z,-3.94
2022-12-11T23:12:47.465Z,-3.88
2022-12-11T23:15:17.041Z,-3.88
2022-12-11T23:17:46.547Z,-3.86
2022-12-11T23:20:16.725Z,-3.89
2022-12-11T23:22:49.815Z,-3.90
2022-12-11T23:25:19.513Z,-3.86
2022-12-11T23:27:49.089Z,-3.90
2022-12-11T23:30:18.580Z,-4.01
2022-12-11T23:32:48.096Z,-4.06
2022-12-11T23:35:17.575Z,-4.03
2022-12-11T23:37:49.626Z,-4.06
2022-12-11T23:40:19.839Z,-4.03
2022-12-11T23:42:49.599Z,-4.03
2022-12-11T23:45:21.159Z,-4.03
2022-12-11T23:47:51.178Z,-4.04
2022-12-11T23:50:21.140Z,-4.07
2022-12-11T23:52:53.310Z,-4.05
2022-12-11T23:55:25.397Z,-4.10
2022-12-11T23:57:54.944Z,-4.12
